25 Max
17 km/h
6 Mini

LFMY 251400Z AUTO 16009KT 100V190 9999 FEW024 SCT031 BKN038 19/13 Q1010

TAF LFMY 241112Z 2409/2509 33012KT CAVOK